createdAt,value
2019-06-08T00:00:28.668Z,0.60
2019-06-08T00:02:55.793Z,0.70
2019-06-08T00:05:23.195Z,0.50
2019-06-08T00:07:50.785Z,0.50
2019-06-08T00:10:22.093Z,0.60
2019-06-08T00:12:47.669Z,0.60
2019-06-08T00:15:16.159Z,0.50
2019-06-08T00:17:43.517Z,0.40
2019-06-08T00:20:11.465Z,0.50
2019-06-08T00:22:38.591Z,0.50
2019-06-08T00:25:06.179Z,0.43
2019-06-08T00:27:33.410Z,0.40
2019-06-08T00:30:00.957Z,0.40
2019-06-08T00:32:28.585Z,0.40
2019-06-08T00:34:55.829Z,0.40
2019-06-08T00:37:22.968Z,0.50
2019-06-08T00:39:50.209Z,0.70
2019-06-08T00:42:17.489Z,0.50
2019-06-08T00:44:44.708Z,0.50
2019-06-08T00:47:11.827Z,0.60
2019-06-08T00:49:38.953Z,0.57
2019-06-08T00:52:06.430Z,0.50
2019-06-08T00:54:33.649Z,0.50
2019-06-08T00:57:01.141Z,0.63
2019-06-08T00:59:28.369Z,0.50
2019-06-08T01:01:55.954Z,0.50
2019-06-08T01:04:23.164Z,0.40
2019-06-08T01:06:50.316Z,0.60
2019-06-08T01:09:18.077Z,0.60
2019-06-08T01:11:45.776Z,0.70
2019-06-08T01:14:13.088Z,0.60
2019-06-08T01:16:40.345Z,0.60
2019-06-08T01:19:07.464Z,0.60
2019-06-08T01:21:34.846Z,0.60
2019-06-08T01:24:02.446Z,0.77
2019-06-08T01:26:30.192Z,0.60
2019-06-08T01:28:57.987Z,0.70
2019-06-08T01:31:26.599Z,0.40
2019-06-08T01:33:54.079Z,0.50
2019-06-08T01:36:21.304Z,0.60
2019-06-08T01:38:49.641Z,0.40
2019-06-08T01:41:16.869Z,0.77
2019-06-08T01:43:44.085Z,0.50
2019-06-08T01:46:11.311Z,0.70
2019-06-08T01:48:38.856Z,0.70
2019-06-08T01:51:06.001Z,0.67
2019-06-08T01:53:33.311Z,0.80
2019-06-08T01:56:00.910Z,0.70
2019-06-08T01:58:29.349Z,0.60
2019-06-08T02:00:56.756Z,0.73
2019-06-08T02:03:23.990Z,0.80
2019-06-08T02:05:51.121Z,0.80
2019-06-08T02:08:18.667Z,0.70
2019-06-08T02:10:45.981Z,0.67
2019-06-08T02:13:13.100Z,0.80
2019-06-08T02:15:40.233Z,0.70
2019-06-08T02:18:07.448Z,0.80
2019-06-08T02:20:35.359Z,0.90
2019-06-08T02:23:02.595Z,0.80
2019-06-08T02:25:29.712Z,0.80
2019-06-08T02:27:57.350Z,0.60
2019-06-08T02:30:28.287Z,1.03
2019-06-08T02:32:57.112Z,0.60
2019-06-08T02:35:24.238Z,0.80
2019-06-08T02:37:51.457Z,0.80
2019-06-08T02:40:18.949Z,0.90
2019-06-08T02:42:46.581Z,1.07
2019-06-08T02:45:15.380Z,1.10
2019-06-08T02:47:42.501Z,1.20
2019-06-08T02:50:10.340Z,1.20
2019-06-08T02:52:40.655Z,1.00
2019-06-08T02:55:08.117Z,0.90
2019-06-08T02:57:37.682Z,1.20
2019-06-08T03:00:06.417Z,1.20
2019-06-08T03:02:36.276Z,1.20
2019-06-08T03:05:04.162Z,0.90
2019-06-08T03:07:34.345Z,1.23
2019-06-08T03:10:02.211Z,1.03
2019-06-08T03:12:31.524Z,1.00
2019-06-08T03:15:02.440Z,1.03
2019-06-08T03:17:31.089Z,1.33
2019-06-08T03:19:58.821Z,1.20
2019-06-08T03:22:26.130Z,1.03
2019-06-08T03:24:53.382Z,1.10
2019-06-08T03:27:20.705Z,1.10
2019-06-08T03:29:47.946Z,1.20
2019-06-08T03:32:15.070Z,1.40
2019-06-08T03:34:53.744Z,1.40
2019-06-08T03:37:11.454Z,1.40
2019-06-08T03:39:38.989Z,1.30
2019-06-08T03:42:06.430Z,1.20
2019-06-08T03:44:34.253Z,1.30
2019-06-08T03:47:01.963Z,1.40
2019-06-08T03:49:41.374Z,1.10
2019-06-08T03:51:58.306Z,1.40
2019-06-08T03:54:25.545Z,1.20
2019-06-08T03:56:52.676Z,1.10
2019-06-08T03:59:19.894Z,1.50
2019-06-08T04:01:47.145Z,1.20
2019-06-08T04:04:14.553Z,1.20
2019-06-08T04:06:41.677Z,1.30
2019-06-08T04:09:09.172Z,1.00
2019-06-08T04:11:37.771Z,1.30
2019-06-08T04:14:05.174Z,1.80
2019-06-08T04:16:32.798Z,1.43
2019-06-08T04:19:00.022Z,1.30
2019-06-08T04:21:27.278Z,1.50
2019-06-08T04:23:54.393Z,1.47
2019-06-08T04:26:21.538Z,1.37
2019-06-08T04:28:49.615Z,1.40
2019-06-08T04:31:17.433Z,1.37
2019-06-08T04:33:46.309Z,1.10
2019-06-08T04:36:13.801Z,1.10
2019-06-08T04:38:41.385Z,1.00
2019-06-08T04:41:10.046Z,1.33
2019-06-08T04:43:38.473Z,1.20
2019-06-08T04:46:05.916Z,1.10
2019-06-08T04:48:33.502Z,1.30
2019-06-08T04:51:00.797Z,1.07
2019-06-08T04:53:28.114Z,1.27
2019-06-08T04:55:55.371Z,1.10
2019-06-08T04:58:22.714Z,1.43
2019-06-08T05:00:50.829Z,1.30
2019-06-08T05:03:18.498Z,1.27
2019-06-08T05:05:47.410Z,1.20
2019-06-08T05:08:14.865Z,1.03
2019-06-08T05:10:43.289Z,1.40
2019-06-08T05:13:10.750Z,1.30
2019-06-08T05:15:39.134Z,1.30
2019-06-08T05:18:06.517Z,1.43
2019-06-08T05:20:38.780Z,1.17
2019-06-08T05:23:02.895Z,1.30
2019-06-08T05:25:30.174Z,1.80
2019-06-08T05:27:57.725Z,1.50
2019-06-08T05:30:28.079Z,1.50
2019-06-08T05:32:54.433Z,1.33
2019-06-08T05:35:21.666Z,1.43
2019-06-08T05:37:49.829Z,1.43
2019-06-08T05:40:17.312Z,1.30
2019-06-08T05:42:45.670Z,1.83
2019-06-08T05:45:13.860Z,1.40
2019-06-08T05:47:41.784Z,1.77
2019-06-08T05:50:09.846Z,1.33
2019-06-08T05:52:37.074Z,1.37
2019-06-08T05:55:04.495Z,1.30
2019-06-08T05:57:31.733Z,1.30
2019-06-08T05:59:58.970Z,1.57
2019-06-08T06:02:26.204Z,1.40
2019-06-08T06:04:53.899Z,1.60
2019-06-08T06:07:21.353Z,1.33
2019-06-08T06:09:48.852Z,1.20
2019-06-08T06:12:16.224Z,1.33
2019-06-08T06:14:44.973Z,1.60
2019-06-08T06:17:12.345Z,1.40
2019-06-08T06:19:40.939Z,1.80
2019-06-08T06:22:08.444Z,1.63
2019-06-08T06:24:35.977Z,1.70
2019-06-08T06:27:03.537Z,1.90
2019-06-08T06:29:30.769Z,2.03
2019-06-08T06:31:58.001Z,1.60
2019-06-08T06:34:25.314Z,1.70
2019-06-08T06:36:52.575Z,1.87
2019-06-08T06:39:20.106Z,1.80
2019-06-08T06:41:47.905Z,1.60
2019-06-08T06:44:15.260Z,1.87
2019-06-08T06:46:43.960Z,1.70
2019-06-08T06:49:11.777Z,1.67
2019-06-08T06:51:38.942Z,1.70
2019-06-08T06:54:06.104Z,1.80
2019-06-08T06:56:33.630Z,1.60
2019-06-08T06:59:00.861Z,1.83
2019-06-08T07:01:28.154Z,1.50
2019-06-08T07:03:55.483Z,2.17
2019-06-08T07:06:23.149Z,1.70
2019-06-08T07:08:52.343Z,1.57
2019-06-08T07:11:19.791Z,1.40
2019-06-08T07:13:47.134Z,1.80
2019-06-08T07:16:18.683Z,1.57
2019-06-08T07:18:44.131Z,1.97
2019-06-08T07:21:11.294Z,1.80
2019-06-08T07:23:38.833Z,1.57
2019-06-08T07:26:06.117Z,1.73
2019-06-08T07:28:33.432Z,1.40
2019-06-08T07:31:00.708Z,1.50
2019-06-08T07:33:30.079Z,1.60
2019-06-08T07:35:57.326Z,1.77
2019-06-08T07:38:24.558Z,1.60
2019-06-08T07:40:52.361Z,1.67
2019-06-08T07:43:19.496Z,1.70
2019-06-08T07:45:47.828Z,1.70
2019-06-08T07:48:15.197Z,1.50
2019-06-08T07:50:42.418Z,2.07
2019-06-08T07:53:09.655Z,1.90
2019-06-08T07:55:36.990Z,1.70
2019-06-08T07:58:04.210Z,1.23
2019-06-08T08:00:31.608Z,1.30
2019-06-08T08:03:00.511Z,1.90
2019-06-08T08:05:27.875Z,1.63
2019-06-08T08:07:56.872Z,1.80
2019-06-08T08:10:24.658Z,1.50
2019-06-08T08:12:52.702Z,1.53
2019-06-08T08:15:20.253Z,1.60
2019-06-08T08:17:48.960Z,1.70
2019-06-08T08:20:16.401Z,1.17
2019-06-08T08:22:43.530Z,1.43
2019-06-08T08:25:11.878Z,1.40
2019-06-08T08:27:39.096Z,1.73
2019-06-08T08:30:08.351Z,1.63
2019-06-08T08:32:38.022Z,1.70
2019-06-08T08:35:05.660Z,1.50
2019-06-08T08:37:56.302Z,1.50
2019-06-08T08:40:21.933Z,1.93
2019-06-08T08:42:50.593Z,1.37
2019-06-08T08:45:18.428Z,1.27
2019-06-08T08:47:48.326Z,1.50
2019-06-08T08:50:14.820Z,1.50
2019-06-08T08:52:42.046Z,1.30
2019-06-08T08:55:10.301Z,1.00
2019-06-08T08:57:38.689Z,1.30
2019-06-08T09:00:08.641Z,1.30
2019-06-08T09:02:37.455Z,1.17
2019-06-08T09:05:05.469Z,1.60
2019-06-08T09:07:33.178Z,1.60
2019-06-08T09:10:03.408Z,1.70
2019-06-08T09:12:29.560Z,1.40
2019-06-08T09:15:00.216Z,1.30
2019-06-08T09:17:27.989Z,1.40
2019-06-08T09:19:58.428Z,1.53
2019-06-08T09:22:24.513Z,1.30
2019-06-08T09:24:53.005Z,1.23
2019-06-08T09:27:21.242Z,1.40
2019-06-08T09:29:48.474Z,1.40
2019-06-08T09:32:18.051Z,1.40
2019-06-08T09:34:45.203Z,1.70
2019-06-08T09:37:12.440Z,1.40
2019-06-08T09:39:39.681Z,1.40
2019-06-08T09:42:09.094Z,1.40
2019-06-08T09:44:37.701Z,1.40
2019-06-08T09:47:09.339Z,1.50
2019-06-08T09:49:34.294Z,1.10
2019-06-08T09:52:03.392Z,1.20
2019-06-08T09:54:30.673Z,1.30
2019-06-08T09:57:02.079Z,1.40
2019-06-08T09:59:28.552Z,1.20
2019-06-08T10:02:00.121Z,1.20
2019-06-08T10:04:25.625Z,1.20
2019-06-08T10:06:54.351Z,1.20
2019-06-08T10:09:21.686Z,1.27
2019-06-08T10:11:49.005Z,1.50
2019-06-08T10:14:18.574Z,1.47
2019-06-08T10:16:47.685Z,1.40
2019-06-08T10:19:14.697Z,1.23
2019-06-08T10:21:43.218Z,1.10
2019-06-08T10:24:10.799Z,1.37
2019-06-08T10:26:38.148Z,1.40
2019-06-08T10:29:09.808Z,1.10
2019-06-08T10:31:39.918Z,1.20
2019-06-08T10:34:05.530Z,1.27
2019-06-08T10:36:33.069Z,1.30
2019-06-08T10:39:07.282Z,1.10
2019-06-08T10:41:32.873Z,1.30
2019-06-08T10:44:01.331Z,1.47
2019-06-08T10:46:29.258Z,1.00
2019-06-08T10:48:59.516Z,1.30
2019-06-08T10:51:27.387Z,1.47
2019-06-08T10:53:55.285Z,1.20
2019-06-08T10:56:30.892Z,1.40
2019-06-08T10:58:57.352Z,1.50
2019-06-08T11:01:25.366Z,1.40
2019-06-08T11:03:53.029Z,1.30
2019-06-08T11:06:22.571Z,1.10
2019-06-08T11:08:52.863Z,1.30
2019-06-08T11:11:28.534Z,1.30
2019-06-08T11:13:58.479Z,1.13
2019-06-08T11:16:28.722Z,1.23
2019-06-08T11:18:59.102Z,1.20
2019-06-08T11:21:28.727Z,1.30
2019-06-08T11:24:07.436Z,1.30
2019-06-08T11:26:25.250Z,1.10
2019-06-08T11:28:52.702Z,1.00
2019-06-08T11:31:20.041Z,1.20
2019-06-08T11:33:49.016Z,1.17
2019-06-08T11:36:18.582Z,1.10
2019-06-08T11:38:47.791Z,1.20
2019-06-08T11:41:17.926Z,1.00
2019-06-08T11:43:44.592Z,1.23
2019-06-08T11:46:11.745Z,1.07
2019-06-08T11:48:41.329Z,1.10
2019-06-08T11:51:10.623Z,1.20
2019-06-08T11:53:38.430Z,1.20
2019-06-08T11:56:09.031Z,1.10
2019-06-08T11:58:38.529Z,1.50
2019-06-08T12:01:12.775Z,1.10
2019-06-08T12:03:38.767Z,1.30
2019-06-08T12:06:10.477Z,1.17
2019-06-08T12:08:37.963Z,1.40
2019-06-08T12:11:06.160Z,1.40
2019-06-08T12:13:34.116Z,1.10
2019-06-08T12:16:02.951Z,1.13
2019-06-08T12:18:30.501Z,1.37
2019-06-08T12:20:58.337Z,1.10
2019-06-08T12:23:27.116Z,1.33
2019-06-08T12:25:54.470Z,1.00
2019-06-08T12:28:21.691Z,0.97
2019-06-08T12:30:49.181Z,0.93
2019-06-08T12:33:18.636Z,1.00
2019-06-08T12:35:47.730Z,1.10
2019-06-08T12:38:16.497Z,1.00
2019-06-08T12:40:44.438Z,1.30
2019-06-08T12:43:13.239Z,1.10
2019-06-08T12:45:41.313Z,1.30
2019-06-08T12:48:14.142Z,1.33
2019-06-08T12:50:38.648Z,1.30
2019-06-08T12:53:12.388Z,1.57
2019-06-08T12:55:37.550Z,1.27
2019-06-08T12:58:04.550Z,1.30
2019-06-08T13:00:31.772Z,1.20
2019-06-08T13:02:59.006Z,1.40
2019-06-08T13:05:27.601Z,1.27
2019-06-08T13:07:55.056Z,0.93
2019-06-08T13:10:24.049Z,1.33
2019-06-08T13:12:51.224Z,1.43
2019-06-08T13:15:21.511Z,1.13
2019-06-08T13:17:47.773Z,1.20
2019-06-08T13:20:21.408Z,1.00
2019-06-08T13:22:48.232Z,1.20
2019-06-08T13:25:31.906Z,1.30
2019-06-08T13:27:45.229Z,1.20
2019-06-08T13:30:17.235Z,1.17
2019-06-08T13:32:43.298Z,1.10
2019-06-08T13:35:12.016Z,1.20
2019-06-08T13:37:39.997Z,1.30
2019-06-08T13:40:08.168Z,2.33
2019-06-08T13:42:38.166Z,1.23
2019-06-08T13:45:07.553Z,1.23
2019-06-08T13:47:38.139Z,2.50
2019-06-08T13:50:05.017Z,1.10
2019-06-08T13:52:32.264Z,1.70
2019-06-08T13:54:59.593Z,1.43
2019-06-08T13:57:26.813Z,1.73
2019-06-08T13:59:54.481Z,1.37
2019-06-08T14:02:25.018Z,0.93
2019-06-08T14:04:50.840Z,1.80
2019-06-08T14:07:23.272Z,1.30
2019-06-08T14:09:48.373Z,0.97
2019-06-08T14:12:19.792Z,1.10
2019-06-08T14:14:47.407Z,1.13
2019-06-08T14:17:15.492Z,0.80
2019-06-08T14:19:43.160Z,1.00
2019-06-08T14:22:10.723Z,0.70
2019-06-08T14:24:38.185Z,0.87
2019-06-08T14:27:05.504Z,0.80
2019-06-08T14:29:33.081Z,1.10
2019-06-08T14:32:00.329Z,0.90
2019-06-08T14:34:29.494Z,0.87
2019-06-08T14:36:58.988Z,1.00
2019-06-08T14:39:27.193Z,0.90
2019-06-08T14:41:57.682Z,1.03
2019-06-08T14:44:25.729Z,1.10
2019-06-08T14:46:53.679Z,0.97
2019-06-08T14:49:26.514Z,1.10
2019-06-08T14:51:50.488Z,1.10
2019-06-08T14:54:22.711Z,0.90
2019-06-08T14:56:48.018Z,1.00
2019-06-08T14:59:15.765Z,1.27
2019-06-08T15:01:43.222Z,1.00
2019-06-08T15:04:10.487Z,1.00
2019-06-08T15:06:38.285Z,1.20
2019-06-08T15:09:05.746Z,0.90
2019-06-08T15:11:35.144Z,0.93
2019-06-08T15:14:02.134Z,1.03
2019-06-08T15:16:31.101Z,1.00
2019-06-08T15:19:00.309Z,0.90
2019-06-08T15:21:32.610Z,1.10
2019-06-08T15:23:57.886Z,1.10
2019-06-08T15:26:32.747Z,0.93
2019-06-08T15:28:54.970Z,0.90
2019-06-08T15:31:23.051Z,0.90
2019-06-08T15:33:50.516Z,0.90
2019-06-08T15:36:20.255Z,1.30
2019-06-08T15:38:47.976Z,1.00
2019-06-08T15:41:18.061Z,0.80
2019-06-08T15:43:44.829Z,1.20
2019-06-08T15:46:12.419Z,1.00
2019-06-08T15:48:39.742Z,1.00
2019-06-08T15:51:07.885Z,0.70
2019-06-08T15:53:37.820Z,0.90
2019-06-08T15:56:04.840Z,1.07
2019-06-08T15:58:32.798Z,1.00
2019-06-08T16:01:01.227Z,0.97
2019-06-08T16:03:29.331Z,0.93
2019-06-08T16:05:56.696Z,1.00
2019-06-08T16:08:24.313Z,1.10
2019-06-08T16:10:51.561Z,0.80
2019-06-08T16:13:19.023Z,0.90
2019-06-08T16:15:46.556Z,0.73
2019-06-08T16:18:13.877Z,1.00
2019-06-08T16:20:41.106Z,1.00
2019-06-08T16:23:08.643Z,0.90
2019-06-08T16:25:38.742Z,0.83
2019-06-08T16:28:05.353Z,1.10
2019-06-08T16:30:33.156Z,1.00
2019-06-08T16:33:00.545Z,0.90
2019-06-08T16:35:28.403Z,1.00
2019-06-08T16:37:57.069Z,0.97
2019-06-08T16:40:24.193Z,1.00
2019-06-08T16:42:51.541Z,0.90
2019-06-08T16:45:18.932Z,0.80
2019-06-08T16:47:46.154Z,0.80
2019-06-08T16:50:24.056Z,0.70
2019-06-08T16:52:42.612Z,0.80
2019-06-08T16:55:10.180Z,1.10
2019-06-08T16:57:39.322Z,1.00
2019-06-08T17:00:30.122Z,0.90
2019-06-08T17:02:37.182Z,0.90
2019-06-08T17:05:05.058Z,0.90
2019-06-08T17:07:33.639Z,1.03
2019-06-08T17:10:01.485Z,1.17
2019-06-08T17:12:28.700Z,1.00
2019-06-08T17:14:56.005Z,0.87
2019-06-08T17:17:23.860Z,1.17
2019-06-08T17:19:51.430Z,1.00
2019-06-08T17:22:18.649Z,1.00
2019-06-08T17:24:46.222Z,0.70
2019-06-08T17:27:26.236Z,0.90
2019-06-08T17:29:43.197Z,0.83
2019-06-08T17:32:10.840Z,1.00
2019-06-08T17:34:38.209Z,1.03
2019-06-08T17:37:05.614Z,0.90
2019-06-08T17:39:33.810Z,0.80
2019-06-08T17:42:01.490Z,0.90
2019-06-08T17:44:28.817Z,0.80
2019-06-08T17:46:56.402Z,0.97
2019-06-08T17:49:23.773Z,0.90
2019-06-08T17:51:51.573Z,1.00
2019-06-08T17:54:19.428Z,0.90
2019-06-08T17:56:47.761Z,1.00
2019-06-08T17:59:15.992Z,1.10
2019-06-08T18:01:43.905Z,0.83
2019-06-08T18:04:11.265Z,1.07
2019-06-08T18:06:40.256Z,0.93
2019-06-08T18:09:09.285Z,1.07
2019-06-08T18:11:40.143Z,1.00
2019-06-08T18:14:07.481Z,1.03
2019-06-08T18:16:37.556Z,1.00
2019-06-08T18:19:04.594Z,0.73
2019-06-08T18:21:34.179Z,0.90
2019-06-08T18:24:02.125Z,0.93
2019-06-08T18:26:30.065Z,1.10
2019-06-08T18:28:58.306Z,1.03
2019-06-08T18:31:27.662Z,1.13
2019-06-08T18:33:54.728Z,0.90
2019-06-08T18:36:22.964Z,1.00
2019-06-08T18:38:50.587Z,0.70
2019-06-08T18:41:17.915Z,0.90
2019-06-08T18:43:46.364Z,1.00
2019-06-08T18:46:14.733Z,0.90
2019-06-08T18:48:44.725Z,1.00
2019-06-08T18:51:13.967Z,1.00
2019-06-08T18:54:01.830Z,1.10
2019-06-08T18:56:11.480Z,0.80
2019-06-08T18:58:39.714Z,1.00
2019-06-08T19:01:08.723Z,0.80
2019-06-08T19:03:40.291Z,0.83
2019-06-08T19:06:10.196Z,1.03
2019-06-08T19:08:39.181Z,1.10
2019-06-08T19:11:08.436Z,0.70
2019-06-08T19:13:37.883Z,1.00
2019-06-08T19:16:07.522Z,1.00
2019-06-08T19:18:37.589Z,1.27
2019-06-08T19:21:07.756Z,1.03
2019-06-08T19:23:38.851Z,1.00
2019-06-08T19:26:09.066Z,1.20
2019-06-08T19:28:44.986Z,0.90
2019-06-08T19:31:10.288Z,1.20
2019-06-08T19:33:38.914Z,1.10
2019-06-08T19:36:07.755Z,1.30
2019-06-08T19:38:35.374Z,1.27
2019-06-08T19:41:02.642Z,1.40
2019-06-08T19:43:30.274Z,1.20
2019-06-08T19:45:58.463Z,1.37
2019-06-08T19:48:30.740Z,1.40
2019-06-08T19:50:58.057Z,1.80
2019-06-08T19:53:25.772Z,2.10
2019-06-08T19:55:57.147Z,1.97
2019-06-08T19:58:28.323Z,2.10
2019-06-08T20:00:58.754Z,2.47
2019-06-08T20:03:29.768Z,1.90
2019-06-08T20:05:57.934Z,1.90
2019-06-08T20:08:28.338Z,2.23
2019-06-08T20:10:57.603Z,2.40
2019-06-08T20:13:28.275Z,2.00
2019-06-08T20:16:01.831Z,2.13
2019-06-08T20:18:28.381Z,2.20
2019-06-08T20:20:58.936Z,2.40
2019-06-08T20:23:30.565Z,2.33
2019-06-08T20:26:00.629Z,2.40
2019-06-08T20:28:28.228Z,2.33
2019-06-08T20:30:57.814Z,2.57
2019-06-08T20:33:27.213Z,2.67
2019-06-08T20:35:55.003Z,2.63
2019-06-08T20:38:35.198Z,2.40
2019-06-08T20:40:52.254Z,2.90
2019-06-08T20:43:20.024Z,2.37
2019-06-08T20:45:49.166Z,2.53
2019-06-08T20:48:18.238Z,2.70
2019-06-08T20:50:47.272Z,3.17
2019-06-08T20:53:17.744Z,3.40
2019-06-08T20:55:48.149Z,3.47
2019-06-08T20:58:14.792Z,2.73
2019-06-08T21:00:42.143Z,2.50
2019-06-08T21:03:09.413Z,2.47
2019-06-08T21:05:37.059Z,2.57
2019-06-08T21:08:04.937Z,2.50
2019-06-08T21:10:33.833Z,2.33
2019-06-08T21:13:07.278Z,2.70
2019-06-08T21:15:34.613Z,2.93
2019-06-08T21:18:02.533Z,3.60
2019-06-08T21:20:29.800Z,3.27
2019-06-08T21:22:59.615Z,3.80
2019-06-08T21:25:28.091Z,3.60
2019-06-08T21:27:58.379Z,2.70
2019-06-08T21:30:24.994Z,2.90
2019-06-08T21:32:54.535Z,2.70
2019-06-08T21:35:21.513Z,2.97
2019-06-08T21:37:52.521Z,3.10
2019-06-08T21:40:18.101Z,3.50
2019-06-08T21:42:47.577Z,3.60
2019-06-08T21:45:14.600Z,3.80
2019-06-08T21:47:41.937Z,3.10
2019-06-08T21:50:10.004Z,3.70
2019-06-08T21:52:37.233Z,3.97
2019-06-08T21:55:07.060Z,3.47
2019-06-08T21:57:33.945Z,3.07
2019-06-08T22:00:19.218Z,3.97
2019-06-08T22:02:30.293Z,3.03
2019-06-08T22:05:02.871Z,3.37
2019-06-08T22:07:28.389Z,2.67
2019-06-08T22:09:58.764Z,2.37
2019-06-08T22:12:25.120Z,2.47
2019-06-08T22:14:52.805Z,2.27
2019-06-08T22:17:20.150Z,2.60
2019-06-08T22:19:47.700Z,2.70
2019-06-08T22:22:14.938Z,2.80
2019-06-08T22:24:42.165Z,2.90
2019-06-08T22:27:09.406Z,3.10
2019-06-08T22:29:38.284Z,3.13
2019-06-08T22:32:07.650Z,2.60
2019-06-08T22:34:37.229Z,2.97
2019-06-08T22:37:04.357Z,2.53
2019-06-08T22:39:31.594Z,2.57
2019-06-08T22:42:01.191Z,2.70
2019-06-08T22:44:28.463Z,2.60
2019-06-08T22:46:58.457Z,2.97
2019-06-08T22:49:27.795Z,2.70
2019-06-08T22:51:55.712Z,2.73
2019-06-08T22:54:23.348Z,3.00
2019-06-08T22:56:50.585Z,3.20
2019-06-08T22:59:17.820Z,3.00
2019-06-08T23:01:47.145Z,2.70
2019-06-08T23:04:14.204Z,3.00
2019-06-08T23:06:41.453Z,3.00
2019-06-08T23:09:09.039Z,3.00
2019-06-08T23:11:37.578Z,3.00
2019-06-08T23:14:10.349Z,2.83
2019-06-08T23:16:34.194Z,3.17
2019-06-08T23:19:01.759Z,3.60
2019-06-08T23:21:29.248Z,3.57
2019-06-08T23:23:59.635Z,3.50
2019-06-08T23:26:27.632Z,3.30
2019-06-08T23:28:56.011Z,3.93
2019-06-08T23:31:25.617Z,3.40
2019-06-08T23:33:52.520Z,3.40
2019-06-08T23:36:45.528Z,3.50
2019-06-08T23:38:48.922Z,3.13
2019-06-08T23:41:17.710Z,3.50
2019-06-08T23:43:45.241Z,3.60
2019-06-08T23:46:12.588Z,3.33
2019-06-08T23:48:39.821Z,3.53
2019-06-08T23:51:09.120Z,3.47
2019-06-08T23:53:38.187Z,3.37
2019-06-08T23:56:06.103Z,3.57
2019-06-08T23:58:34.297Z,3.70
